• Join FlightAware (Why Join?)
  • Login
  • US Flag 
09:19PM EDT


 

Airport Tracker/Info


-or-


 

Live Flight TrackerFlight Track Log ✈ UAL1177 ✈ 15-May-2013 ✈ KDEN - KPDX

Flight Track Log - Related Links

Times and Time Zones

All times are in EDT time to prevent confusion due to time zone crossing. See the UAL1177 flight status page for this flight to view local times or setup timezone preferences in your user account.

Time Position Orientation Groundspeed Altitude Reporting Facility
EDT Latitude Longitude Course Direction KTS MPH feet Rate Location/Type
09:59PM 39.8866 -104.6970 270° West 184 212 5,800  Level FlightAware ADS-B
09:59PM 39.8896 -104.6970 360° North 184 212 6,000 2,520 Climbing FlightAware ADS-B
09:59PM 39.8922 -104.6980 344° North 186 214 6,100 1,980 Climbing FlightAware ADS-B
09:59PM 39.8951 -104.6990 345° North 189 217 6,200 1,680 Climbing FlightAware ADS-B
09:59PM 39.8976 -104.7010 328° Northwest 193 222 6,300 1,680 Climbing FlightAware ADS-B
09:59PM 39.9002 -104.7040 318° Northwest 197 227 6,400 1,680 Climbing FlightAware ADS-B
09:59PM 39.9026 -104.7070 316° Northwest 201 231 6,500 1,500 Climbing FlightAware ADS-B
09:59PM 39.9046 -104.7120 298° West 209 241 6,600 1,680 Climbing FlightAware ADS-B
09:59PM 39.9060 -104.7150 301° West 215 247 6,700 1,200 Climbing FlightAware ADS-B
10:00PM 39.9084 -104.7230 291° West 223 257 6,800 960 Climbing FlightAware ADS-B
10:00PM 39.9143 -104.7470 288° West 245 282 7,100 1,800 Climbing FlightAware ADS-B
10:00PM 39.9201 -104.7690 289° West 250 288 7,800 2,760 Climbing FlightAware ADS-B
10:00PM 39.9237 -104.7830 289° West 248 285 8,300 2,640 Climbing FlightAware ADS-B
10:00PM 39.9297 -104.8050 290° West 252 290 8,900 2,100 Climbing FlightAware ADS-B
10:01PM 39.9318 -104.8120 291° West 258 297 9,000 1,080 Climbing FlightAware ADS-B
10:01PM 39.9367 -104.8290 291° West 271 312 9,200 1,620 Climbing FlightAware ADS-B
10:01PM 39.9451 -104.8570 291° West 280 322 9,800 1,140 Climbing FlightAware ADS-B
10:01PM 39.9545 -104.8940 288° West 289 333 10,000 480 Climbing FlightAware ADS-B
10:02PM 39.9574 -104.9170 279° West 292 336 10,100 1,980 Climbing FlightAware ADS-B
10:02PM 39.9588 -104.9790 272° West 292 336 11,600 2,640 Climbing FlightAware ADS-B
10:03PM 39.9600 -105.0280 272° West 291 335 13,000 3,000 Climbing FlightAware
10:03PM 39.9604 -105.0420 272° West 291 335 13,400 1,260 Climbing FlightAware ADS-B
10:04PM 39.9640 -105.1850 272° West 356 410 14,800 1,500 Climbing FlightAware
10:05PM 39.9660 -105.2830 272° West 369 425 16,400 2,160 Climbing FlightAware
10:05PM 39.9680 -105.3710 272° West 381 438 17,700 1,920 Climbing FlightAware
10:06PM 39.9700 -105.4690 272° West 389 448 19,200 1,920 Climbing FlightAware
10:07PM 39.9720 -105.5710 271° West 399 459 20,500 1,860 Climbing FlightAware
10:08PM 40.0010 -105.6720 291° West 406 467 21,900 1,800 Climbing FlightAware
10:08PM 40.0148 -105.7080 297° West 410 472 22,300 1,320 Climbing FlightAware ADS-B
10:09PM 40.0760 -105.8650 297° West 430 495 23,800 1,380 Climbing FlightAware
10:10PM 40.1140 -105.9580 298° West 432 497 24,900 1,620 Climbing FlightAware
10:10PM 40.1459 -106.0370 298° West 433 498 25,800 1,200 Climbing FlightAware ADS-B
10:11PM 40.1930 -106.1570 297° West 442 509 26,600 660 Climbing FlightAware
10:12PM 40.2300 -106.2480 298° West 456 525 26,900 180 Climbing FlightAware
10:13PM 40.2690 -106.3490 297° West 456 525 26,900  Level FlightAware
10:13PM 40.3020 -106.4330 297° West 456 525 26,900  Level FlightAware
10:14PM 40.3340 -106.5170 297° West 456 525 26,900  Level FlightAware
10:15PM 40.3670 -106.6000 298° West 456 525 26,900  Level FlightAware
10:15PM 40.3990 -106.6840 297° West 456 525 26,900 1,320 Level FlightAware
10:20PM 40.6810 -107.4080 297° West 458 527 34,000 1,320 Climbing FlightAware
10:20PM 40.7160 -107.5040 296° West 458 527 34,000  Level FlightAware
10:21PM 40.7480 -107.5890 296° West 458 527 34,000  Level FlightAware
10:22PM 40.7990 -107.7210 297° West 457 526 34,000  Level FlightAware
10:22PM 40.8300 -107.8070 295° West 457 526 34,000  Level FlightAware
10:23PM 40.8620 -107.8920 296° West 457 526 34,000  Level FlightAware
10:24PM 40.8930 -107.9780 296° West 457 526 34,000  Level FlightAware
10:25PM 40.9330 -108.0840 297° West 457 526 34,000  Level FlightAware
10:25PM 40.9640 -108.1700 296° West 457 526 34,000  Level FlightAware
10:26PM 40.9960 -108.2560 296° West 457 526 34,000  Level FlightAware
10:27PM 41.0270 -108.3410 296° West 457 526 34,000  Level FlightAware
10:27PM 41.0670 -108.4480 296° West 457 526 34,000  Level FlightAware
10:28PM 41.0980 -108.5340 296° West 457 526 34,000  Level FlightAware
10:29PM 41.1300 -108.6200 296° West 457 526 34,000  Level FlightAware
10:29PM 41.1610 -108.7060 296° West 457 526 34,000  Level FlightAware
10:30PM 41.1930 -108.7910 297° West 457 526 34,000  Level FlightAware
10:31PM 41.2320 -108.8990 296° West 457 526 34,000 300 Level FlightAware
10:32PM 41.3447 -109.2094 296° West 464 534 34,500 720 Climbing Denver Center
10:32PM 41.3725 -109.2856 296° West 467 537 34,900 1,020 Climbing Salt Lake Center
10:33PM 41.4256 -109.4353 295° West 464 534 36,000 480 Climbing Salt Lake Center
10:34PM 41.4858 -109.6036 296° West 452 520 36,000  Level Salt Lake Center
10:35PM 41.5364 -109.7467 295° West 447 514 36,000  Level Salt Lake Center
10:36PM 41.5956 -109.9136 295° West 446 513 36,000  Level Salt Lake Center
10:37PM 41.6439 -110.0569 294° West 444 511 36,000  Level Salt Lake Center
10:38PM 41.6939 -110.1981 295° West 440 506 36,000  Level Salt Lake Center
10:39PM 41.7506 -110.3622 295° West 437 503 36,000  Level Salt Lake Center
10:40PM 41.7986 -110.5042 294° West 436 502 36,000  Level Salt Lake Center
10:41PM 41.8553 -110.6683 295° West 436 502 36,000  Level Salt Lake Center
10:42PM 41.9025 -110.8092 294° West 434 499 36,000  Level Salt Lake Center
10:43PM 41.9536 -110.9625 294° West 431 496 36,000  Level Salt Lake Center
10:44PM 42.0028 -111.1092 294° West 432 497 36,000  Level Salt Lake Center
10:45PM 42.0528 -111.2564 295° West 434 499 36,000  Level Salt Lake Center
10:47PM 42.1017 -111.4031 294° West 433 498 36,000  Level Salt Lake Center
10:48PM 42.1600 -111.5806 294° West 433 498 36,000  Level Salt Lake Center
10:49PM 42.2075 -111.7272 294° West 431 496 36,000  Level Salt Lake Center
10:50PM 42.2553 -111.8711 294° West 424 488 36,000  Level Salt Lake Center
10:51PM 42.3025 -112.0178 294° West 428 493 36,000  Level Salt Lake Center
10:52PM 42.3500 -112.1625 294° West 425 489 36,000  Level Salt Lake Center
10:53PM 42.3953 -112.3075 293° West 422 486 36,000  Level Salt Lake Center
10:54PM 42.4417 -112.4492 294° West 415 478 36,000  Level Salt Lake Center
10:55PM 42.4953 -112.6194 293° West 413 475 36,000  Level Salt Lake Center
10:56PM 42.5394 -112.7594 293° West 408 470 36,000  Level Salt Lake Center
10:57PM 42.5850 -112.9028 293° West 413 475 36,000  Level Salt Lake Center
10:58PM 42.6303 -113.0467 293° West 415 478 36,000  Level Salt Lake Center
10:59PM 42.6744 -113.1894 293° West 413 475 36,000  Level Salt Lake Center
11:00PM 42.7211 -113.3358 293° West 408 470 36,000  Level Salt Lake Center
11:01PM 42.7700 -113.5003 292° West 415 478 36,000  Level Salt Lake Center
11:02PM 42.8133 -113.6394 293° West 418 481 36,000  Level Salt Lake Center
11:03PM 42.8550 -113.7792 292° West 416 479 36,000  Level Salt Lake Center
11:04PM 42.9022 -113.9464 291° West 426 490 36,000  Level Salt Lake Center
11:05PM 42.9469 -114.0919 293° West 418 481 36,000  Level Salt Lake Center
11:06PM 42.9922 -114.2342 294° West 420 483 36,000  Level Salt Lake Center
11:07PM 43.0408 -114.3969 292° West 415 478 36,000  Level Salt Lake Center
11:08PM 43.0819 -114.5375 292° West 416 479 36,000  Level Salt Lake Center
11:09PM 43.1297 -114.7011 292° West 415 478 36,000  Level Salt Lake Center
11:10PM 43.1711 -114.8428 292° West 417 480 36,000  Level Salt Lake Center
11:11PM 43.2122 -114.9842 292° West 417 480 36,000  Level Salt Lake Center
11:12PM 43.2592 -115.1489 291° West 413 475 36,000  Level Salt Lake Center
11:13PM 43.2997 -115.2894 292° West 412 474 36,000  Level Salt Lake Center
11:14PM 43.3464 -115.4544 291° West 415 478 36,000  Level Salt Lake Center
11:15PM 43.3867 -115.5947 292° West 410 472 36,000  Level Salt Lake Center
11:16PM 43.4256 -115.7350 291° West 408 470 36,000  Level Salt Lake Center
11:17PM 43.4711 -115.8986 291° West 408 470 36,000  Level Salt Lake Center
11:18PM 43.5089 -116.0378 291° West 405 466 36,000  Level Salt Lake Center
11:19PM 43.5469 -116.1772 291° West 404 465 36,000  Level Salt Lake Center
11:20PM 43.5992 -116.3356 295° West 406 467 36,000  Level Salt Lake Center
11:21PM 43.6442 -116.4706 295° West 403 464 36,000  Level Salt Lake Center
11:22PM 43.6958 -116.6308 294° West 407 468 36,000  Level Salt Lake Center
11:23PM 43.7400 -116.7667 294° West 402 463 36,000  Level Salt Lake Center
11:24PM 43.7856 -116.9050 295° West 408 470 36,000  Level Salt Lake Center
11:25PM 43.8383 -117.0675 294° West 411 473 36,000  Level Salt Lake Center
11:26PM 43.8833 -117.2081 294° West 415 478 36,000  Level Salt Lake Center
11:28PM 43.9281 -117.3497 294° West 418 481 36,000  Level Salt Lake Center
11:29PM 43.9814 -117.5144 294° West 417 480 36,000  Level Salt Lake Center
11:30PM 44.0264 -117.6572 294° West 420 483 36,000  Level Salt Lake Center
11:31PM 44.0778 -117.8214 294° West 415 478 36,000  Level Salt Lake Center
11:32PM 44.1228 -117.9619 294° West 416 479 36,000  Level Salt Lake Center
11:33PM 44.1642 -118.1022 292° West 410 472 36,000  Level Salt Lake Center
11:34PM 44.2158 -118.2681 294° West 416 479 36,000  Level Salt Lake Center
11:35PM 44.2614 -118.4133 294° West 417 480 36,000  Level Salt Lake Center
11:35PM 44.2883 -118.5003 293° West 414 476 36,000  Level Seattle Center
11:36PM 44.3311 -118.6481 292° West 410 472 36,000  Level Seattle Center
11:37PM 44.3769 -118.7944 294° West 412 474 36,000  Level Seattle Center
11:38PM 44.4219 -118.9408 293° West 410 472 36,000  Level Seattle Center
11:39PM 44.4661 -119.0894 293° West 414 476 36,000  Level Seattle Center
11:40PM 44.5175 -119.2361 296° West 420 483 36,000  Level Seattle Center
11:42PM 44.6519 -119.5111 305° West 429 494 36,000  Level Seattle Center
11:43PM 44.7181 -119.6525 303° West 426 490 36,000  Level Seattle Center
11:44PM 44.7822 -119.7883 304° West 425 489 36,000  Level Seattle Center
11:45PM 44.8464 -119.9272 303° West 421 484 36,000  Level Seattle Center
11:46PM 44.9122 -120.0692 303° West 418 481 36,000  Level Seattle Center
11:47PM 44.9761 -120.2069 303° West 414 476 36,000  Level Seattle Center
11:48PM 45.0394 -120.3450 303° West 416 479 36,000  Level Seattle Center
11:49PM 45.1014 -120.4806 303° West 413 475 36,000 -960 Level Seattle Center
11:50PM 45.1619 -120.6131 303° West 402 463 34,100 -2,340 Descending Seattle Center
11:51PM 45.2217 -120.7450 303° West 402 463 31,300 -2,640 Descending Seattle Center
11:53PM 45.2933 -120.9017 303° West 395 455 28,800 -2,280 Descending Seattle Center
11:54PM 45.3494 -121.0269 303° West 378 435 26,800 -1,980 Descending Seattle Center
11:55PM 45.4033 -121.1489 302° West 366 421 24,900 -1,920 Descending Seattle Center
11:56PM 45.4353 -121.2747 290° West 345 397 23,000 -1,920 Descending Seattle Center
11:56PM 45.4469 -121.3464 283° West 328 377 21,900 -1,920 Descending Seattle Center
11:57PM 45.4525 -121.4056 278° West 339 390 21,100 -1,800 Descending Seattle Center
11:57PM 45.4642 -121.4783 283° West 339 390 20,100 -1,800 Descending Seattle Center
11:58PM 45.4694 -121.5361 277° West 337 388 19,300 -2,340 Descending Seattle Center
11:58PM 45.4769 -121.5997 280° West 337 388 18,000 -2,220 Descending Seattle Center
11:59PM 45.4853 -121.6692 280° West 343 395 17,100 -1,800 Descending Seattle Center
11:59PM 45.4939 -121.7314 281° West 342 394 16,200 -1,920 Descending Seattle Center
12:00AM 45.5003 -121.7997 278° West 337 388 15,200 -1,980 Descending Seattle Center
12:00AM 45.5097 -121.8700 281° West 327 376 14,200 -1,680 Descending Seattle Center
12:01AM 45.5158 -121.9272 279° West 329 379 13,500 -1,860 Descending Seattle Center
12:01AM 45.5250 -122.0058 279° West 317 365 12,200 -1,920 Descending Seattle Center
12:02AM 45.5297 -122.0450 280° West 316 364 11,600 -1,680 Descending Seattle Center
12:02AM 45.5392 -122.1264 279° West 310 357 10,500 -1,680 Descending Seattle Center
12:03AM 45.5436 -122.1647 279° West 310 357 9,900 -600 Descending Seattle Center
12:03AM 45.5578 -122.2269 288° West 281 323 10,000  Climbing Seattle Center
12:04AM 45.5722 -122.2689 296° West 290 334 9,900  Descending Seattle Center
12:04AM 45.5886 -122.3253 293° West 265 305 10,000  Climbing Seattle Center
12:05AM 45.6006 -122.3647 293° West 269 310 9,900 -720 Descending Seattle Center
12:06AM 45.6356 -122.4578 298° West 269 310 8,900 -1,500 Descending Seattle Center
12:07AM 45.6736 -122.5544 299° West 277 319 6,900 -2,100 Descending Seattle Center
12:07AM 45.6933 -122.6067 298° West 270 311 6,100 -1,800 Descending Seattle Center
12:08AM 45.7178 -122.6642 301° West 271 312 5,100 -720 Descending Seattle Center
12:09AM 45.7506 -122.7461 300° West 253 291 4,900 -600 Descending Seattle Center
12:10AM 45.7544 -122.8081 275° West 222 255 3,900 -1,080 Descending Seattle Center
12:10AM 45.7428 -122.8214 219° Southwest 186 214 3,600 -1,020 Descending Seattle Center
12:11AM 45.7122 -122.8472 211° Southwest 194 223 2,900 -600 Descending Seattle Center
12:11AM 45.6944 -122.8286 144° Southeast 191 220 3,000  Climbing Seattle Center
12:12AM 45.6650 -122.7789 130° Southeast 190 219 2,900 -540 Descending Seattle Center
12:13AM 45.6469 -122.7303 118° Southeast 193 222 2,100 -960 Descending Seattle Center
12:14AM 45.6236 -122.6694 119° Southeast 184 212 1,200 -720 Descending Seattle Center
12:15AM 45.6039 -122.6203 120° Southeast 178 205 700 -540 Descending Seattle Center